首页
METAR-TAF:

METAR-TAF

机场 :

扎波羅熱國際機場

扎波罗热, 乌克兰

纬度: 47-52-02N, 经度: 035-18-59E, 海拔: 114米

当前天气观测

该预报发布于5小时和8分钟前的16:00 UTC
风速8节,风向东转东南,在东南之间变化
温度 15°C
湿度 21%
气压 1010 hPa
能见度10公里或以上
1500米以下无云,无积雨云

METAR: UKDE 281600Z 11004MPS 080V140 CAVOK 15/M07 Q1010 R02R/090070 NOSIG

时间: 23:08 (21:08 UTC)

预报

该预报发布于7小时和6分钟前的14:02 UTC
预报有效从28日的 15点(UTC)到 28日的 24点(UTC)
风速12节,风向
能见度10公里或以上
1500米以下无云,无积雨云
短暂存在
从 28日的 15点(UTC)到 28日的 18点(UTC)
风速14节,风向东转东南,有时为23节阵风

TAF: UKDE 281402Z 2815/2824 09006MPS CAVOK TEMPO 2815/2818 12007G12MPS

超过4000个机场的气象观测和天气预报(METAR&TAF报告)。

可查询的气象台以黄色和红色小点在地图上表示。

将鼠标移到小点上方,可查看气象台名称。

然后点击查看天气观测和预报。

如需切换地图:点击带黑十字的绿色按钮放大地图;点击带横线的绿色按钮缩小地图;或者点击绿色箭头查看邻近地区的地图。


METAR-TAF: